sensor_id;sensor_type;location;lat;lon;timestamp;temperature;humidity
7844;DHT22;3967;48.702;9.326;2023-02-28T00:00:36;-0.70;72.10
7844;DHT22;3967;48.702;9.326;2023-02-28T00:03:03;-0.80;72.70
7844;DHT22;3967;48.702;9.326;2023-02-28T00:05:30;-0.80;73.00
7844;DHT22;3967;48.702;9.326;2023-02-28T00:07:57;-0.80;73.10
7844;DHT22;3967;48.702;9.326;2023-02-28T00:10:26;-0.70;73.00
7844;DHT22;3967;48.702;9.326;2023-02-28T00:12:55;-0.70;72.80
7844;DHT22;3967;48.702;9.326;2023-02-28T00:15:26;-0.80;73.10
7844;DHT22;3967;48.702;9.326;2023-02-28T00:17:53;-0.80;73.30
7844;DHT22;3967;48.702;9.326;2023-02-28T00:20:20;-0.80;73.50
7844;DHT22;3967;48.702;9.326;2023-02-28T00:22:49;-0.80;73.70
7844;DHT22;3967;48.702;9.326;2023-02-28T00:25:19;-0.70;73.60
7844;DHT22;3967;48.702;9.326;2023-02-28T00:27:46;-0.70;73.40
7844;DHT22;3967;48.702;9.326;2023-02-28T00:30:15;-0.70;73.60
7844;DHT22;3967;48.702;9.326;2023-02-28T00:32:42;-0.70;73.60
7844;DHT22;3967;48.702;9.326;2023-02-28T00:35:10;-0.70;73.70
7844;DHT22;3967;48.702;9.326;2023-02-28T00:37:37;-0.70;73.90
7844;DHT22;3967;48.702;9.326;2023-02-28T00:40:04;-0.70;73.90
7844;DHT22;3967;48.702;9.326;2023-02-28T00:42:33;-0.80;73.90
7844;DHT22;3967;48.702;9.326;2023-02-28T00:45:01;-0.80;74.30
7844;DHT22;3967;48.702;9.326;2023-02-28T00:47:28;-0.70;74.40
7844;DHT22;3967;48.702;9.326;2023-02-28T00:49:54;-0.70;74.20
7844;DHT22;3967;48.702;9.326;2023-02-28T00:52:21;-0.50;74.30
7844;DHT22;3967;48.702;9.326;2023-02-28T00:54:48;-0.60;73.80
7844;DHT22;3967;48.702;9.326;2023-02-28T00:57:14;-0.60;74.10
7844;DHT22;3967;48.702;9.326;2023-02-28T00:59:41;-0.70;74.40
7844;DHT22;3967;48.702;9.326;2023-02-28T01:02:08;-0.70;74.50
7844;DHT22;3967;48.702;9.326;2023-02-28T01:04:35;-0.90;74.40
7844;DHT22;3967;48.702;9.326;2023-02-28T01:07:01;-1.00;74.80
7844;DHT22;3967;48.702;9.326;2023-02-28T01:09:28;-0.80;75.30
7844;DHT22;3967;48.702;9.326;2023-02-28T01:11:55;-0.90;75.10
7844;DHT22;3967;48.702;9.326;2023-02-28T01:14:21;-1.00;75.40
7844;DHT22;3967;48.702;9.326;2023-02-28T01:16:48;-1.00;75.80
7844;DHT22;3967;48.702;9.326;2023-02-28T01:19:15;-0.90;76.30
7844;DHT22;3967;48.702;9.326;2023-02-28T01:21:42;-1.10;75.90
7844;DHT22;3967;48.702;9.326;2023-02-28T01:24:09;-1.00;76.50
7844;DHT22;3967;48.702;9.326;2023-02-28T01:26:36;-0.90;76.60
7844;DHT22;3967;48.702;9.326;2023-02-28T01:29:02;-0.80;76.70
7844;DHT22;3967;48.702;9.326;2023-02-28T01:31:29;-1.00;76.90
7844;DHT22;3967;48.702;9.326;2023-02-28T01:33:57;-1.20;77.40
7844;DHT22;3967;48.702;9.326;2023-02-28T01:36:24;-1.20;78.00
7844;DHT22;3967;48.702;9.326;2023-02-28T01:38:51;-1.10;78.20
7844;DHT22;3967;48.702;9.326;2023-02-28T01:41:22;-1.10;78.20
7844;DHT22;3967;48.702;9.326;2023-02-28T01:46:16;-1.10;78.70
7844;DHT22;3967;48.702;9.326;2023-02-28T01:48:52;-1.10;78.80
7844;DHT22;3967;48.702;9.326;2023-02-28T01:51:31;-1.00;79.00
7844;DHT22;3967;48.702;9.326;2023-02-28T01:54:07;-1.10;79.00
7844;DHT22;3967;48.702;9.326;2023-02-28T01:56:47;-1.10;79.40
7844;DHT22;3967;48.702;9.326;2023-02-28T01:59:29;-1.10;79.70
7844;DHT22;3967;48.702;9.326;2023-02-28T02:01:58;-1.00;79.70
7844;DHT22;3967;48.702;9.326;2023-02-28T02:04:34;-0.90;79.70
7844;DHT22;3967;48.702;9.326;2023-02-28T02:07:04;-0.90;79.50
7844;DHT22;3967;48.702;9.326;2023-02-28T02:09:31;-1.00;79.80
7844;DHT22;3967;48.702;9.326;2023-02-28T02:11:58;-1.10;80.30
7844;DHT22;3967;48.702;9.326;2023-02-28T02:14:43;-1.10;80.60
7844;DHT22;3967;48.702;9.326;2023-02-28T02:17:36;-1.00;80.60
7844;DHT22;3967;48.702;9.326;2023-02-28T02:42:01;-0.90;82.20
7844;DHT22;3967;48.702;9.326;2023-02-28T02:44:39;-0.90;81.70
7844;DHT22;3967;48.702;9.326;2023-02-28T02:47:14;-1.00;81.70
7844;DHT22;3967;48.702;9.326;2023-02-28T02:49:47;-0.90;82.30
7844;DHT22;3967;48.702;9.326;2023-02-28T02:52:18;-0.90;82.30
7844;DHT22;3967;48.702;9.326;2023-02-28T02:54:48;-1.10;82.30
7844;DHT22;3967;48.702;9.326;2023-02-28T02:57:21;-1.20;83.10
7844;DHT22;3967;48.702;9.326;2023-02-28T02:59:50;-1.10;83.60
7844;DHT22;3967;48.702;9.326;2023-02-28T03:02:18;-1.10;83.60
7844;DHT22;3967;48.702;9.326;2023-02-28T03:04:51;-1.10;83.50
7844;DHT22;3967;48.702;9.326;2023-02-28T03:07:18;-1.10;83.70
7844;DHT22;3967;48.702;9.326;2023-02-28T03:09:52;-1.20;84.30
7844;DHT22;3967;48.702;9.326;2023-02-28T03:12:20;-1.30;84.20
7844;DHT22;3967;48.702;9.326;2023-02-28T03:15:13;-1.20;84.40
7844;DHT22;3967;48.702;9.326;2023-02-28T03:18:08;-1.10;84.20
7844;DHT22;3967;48.702;9.326;2023-02-28T03:23:23;-1.00;84.40
7844;DHT22;3967;48.702;9.326;2023-02-28T03:26:13;-1.20;84.60
7844;DHT22;3967;48.702;9.326;2023-02-28T03:31:43;-1.30;85.60
7844;DHT22;3967;48.702;9.326;2023-02-28T03:34:22;-1.20;85.70
7844;DHT22;3967;48.702;9.326;2023-02-28T03:36:53;-1.20;86.40
7844;DHT22;3967;48.702;9.326;2023-02-28T03:42:10;-1.10;86.00
7844;DHT22;3967;48.702;9.326;2023-02-28T03:45:05;-1.10;86.00
7844;DHT22;3967;48.702;9.326;2023-02-28T03:47:52;-1.10;85.90
7844;DHT22;3967;48.702;9.326;2023-02-28T03:50:26;-1.00;85.90
7844;DHT22;3967;48.702;9.326;2023-02-28T03:52:59;-1.00;85.50
7844;DHT22;3967;48.702;9.326;2023-02-28T03:55:37;-0.90;85.70
7844;DHT22;3967;48.702;9.326;2023-02-28T03:58:20;-1.20;85.90
7844;DHT22;3967;48.702;9.326;2023-02-28T04:00:57;-1.10;86.50
7844;DHT22;3967;48.702;9.326;2023-02-28T04:03:25;-1.10;86.40
7844;DHT22;3967;48.702;9.326;2023-02-28T04:05:54;-1.20;86.50
7844;DHT22;3967;48.702;9.326;2023-02-28T04:08:22;-1.10;86.80
7844;DHT22;3967;48.702;9.326;2023-02-28T04:10:55;-1.20;86.90
7844;DHT22;3967;48.702;9.326;2023-02-28T04:13:24;-1.20;87.30
7844;DHT22;3967;48.702;9.326;2023-02-28T04:15:50;-1.10;87.30
7844;DHT22;3967;48.702;9.326;2023-02-28T04:18:17;-1.10;87.50
7844;DHT22;3967;48.702;9.326;2023-02-28T04:20:44;-1.10;87.50
7844;DHT22;3967;48.702;9.326;2023-02-28T04:23:10;-1.10;88.00
7844;DHT22;3967;48.702;9.326;2023-02-28T04:25:37;-1.20;88.30
7844;DHT22;3967;48.702;9.326;2023-02-28T04:28:06;-1.10;88.80
7844;DHT22;3967;48.702;9.326;2023-02-28T04:30:33;-1.10;88.50
7844;DHT22;3967;48.702;9.326;2023-02-28T04:33:00;-1.10;88.50
7844;DHT22;3967;48.702;9.326;2023-02-28T04:35:27;-1.10;88.90
7844;DHT22;3967;48.702;9.326;2023-02-28T04:37:53;-1.10;88.90
7844;DHT22;3967;48.702;9.326;2023-02-28T04:40:20;-1.10;89.20
7844;DHT22;3967;48.702;9.326;2023-02-28T04:42:47;-1.10;89.30
7844;DHT22;3967;48.702;9.326;2023-02-28T04:45:14;-1.20;89.30
7844;DHT22;3967;48.702;9.326;2023-02-28T04:47:40;-1.20;89.50
7844;DHT22;3967;48.702;9.326;2023-02-28T04:50:07;-1.20;89.80
7844;DHT22;3967;48.702;9.326;2023-02-28T04:52:35;-1.10;89.80
7844;DHT22;3967;48.702;9.326;2023-02-28T04:55:01;-1.10;89.40
7844;DHT22;3967;48.702;9.326;2023-02-28T04:57:28;-1.10;89.70
7844;DHT22;3967;48.702;9.326;2023-02-28T04:59:56;-1.00;89.70
7844;DHT22;3967;48.702;9.326;2023-02-28T05:02:23;-1.00;89.30
7844;DHT22;3967;48.702;9.326;2023-02-28T05:04:50;-0.90;89.20
7844;DHT22;3967;48.702;9.326;2023-02-28T05:07:17;-1.00;89.60
7844;DHT22;3967;48.702;9.326;2023-02-28T05:09:43;-1.00;89.60
7844;DHT22;3967;48.702;9.326;2023-02-28T05:12:10;-1.00;89.30
7844;DHT22;3967;48.702;9.326;2023-02-28T05:14:37;-1.00;90.20
7844;DHT22;3967;48.702;9.326;2023-02-28T05:17:03;-1.00;89.80
7844;DHT22;3967;48.702;9.326;2023-02-28T05:19:30;-0.90;89.60
7844;DHT22;3967;48.702;9.326;2023-02-28T05:21:57;-1.00;89.60
7844;DHT22;3967;48.702;9.326;2023-02-28T05:24:24;-1.00;89.60
7844;DHT22;3967;48.702;9.326;2023-02-28T05:26:53;-1.00;89.50
7844;DHT22;3967;48.702;9.326;2023-02-28T05:29:21;-0.90;89.70
7844;DHT22;3967;48.702;9.326;2023-02-28T05:31:47;-0.80;88.80
7844;DHT22;3967;48.702;9.326;2023-02-28T05:34:14;-0.80;88.40
7844;DHT22;3967;48.702;9.326;2023-02-28T05:36:42;-0.90;89.10
7844;DHT22;3967;48.702;9.326;2023-02-28T05:39:09;-0.90;88.70
7844;DHT22;3967;48.702;9.326;2023-02-28T05:41:41;-0.90;88.60
7844;DHT22;3967;48.702;9.326;2023-02-28T05:46:37;-0.80;88.60
7844;DHT22;3967;48.702;9.326;2023-02-28T05:49:04;-0.80;88.30
7844;DHT22;3967;48.702;9.326;2023-02-28T05:51:31;-0.80;88.30
7844;DHT22;3967;48.702;9.326;2023-02-28T05:53:59;-0.70;88.30
7844;DHT22;3967;48.702;9.326;2023-02-28T05:56:27;-0.70;87.70
7844;DHT22;3967;48.702;9.326;2023-02-28T05:58:54;-0.70;87.70
7844;DHT22;3967;48.702;9.326;2023-02-28T06:01:32;-0.60;87.50
7844;DHT22;3967;48.702;9.326;2023-02-28T06:04:00;-0.60;87.00
7844;DHT22;3967;48.702;9.326;2023-02-28T06:06:28;-0.70;87.40
7844;DHT22;3967;48.702;9.326;2023-02-28T06:08:56;-0.60;87.60
7844;DHT22;3967;48.702;9.326;2023-02-28T06:11:23;-0.20;92.40
7844;DHT22;3967;48.702;9.326;2023-02-28T06:13:58;-0.20;88.90
7844;DHT22;3967;48.702;9.326;2023-02-28T06:16:27;-0.40;87.10
7844;DHT22;3967;48.702;9.326;2023-02-28T06:18:56;-0.40;86.50
7844;DHT22;3967;48.702;9.326;2023-02-28T06:21:23;-0.40;86.30
7844;DHT22;3967;48.702;9.326;2023-02-28T06:23:50;-0.50;86.50
7844;DHT22;3967;48.702;9.326;2023-02-28T06:26:18;-0.50;86.70
7844;DHT22;3967;48.702;9.326;2023-02-28T06:28:45;-0.50;86.60
7844;DHT22;3967;48.702;9.326;2023-02-28T06:31:15;-0.60;86.80
7844;DHT22;3967;48.702;9.326;2023-02-28T06:33:43;-0.60;86.90
7844;DHT22;3967;48.702;9.326;2023-02-28T06:36:10;-0.60;87.20
7844;DHT22;3967;48.702;9.326;2023-02-28T06:38:38;-0.60;87.10
7844;DHT22;3967;48.702;9.326;2023-02-28T06:41:05;-0.60;87.20
7844;DHT22;3967;48.702;9.326;2023-02-28T06:43:42;-0.50;87.10
7844;DHT22;3967;48.702;9.326;2023-02-28T06:46:12;-0.40;86.90
7844;DHT22;3967;48.702;9.326;2023-02-28T06:48:40;-0.40;86.80
7844;DHT22;3967;48.702;9.326;2023-02-28T06:51:12;-0.30;86.50
7844;DHT22;3967;48.702;9.326;2023-02-28T06:53:41;-0.40;86.10
7844;DHT22;3967;48.702;9.326;2023-02-28T06:56:10;-0.40;86.10
7844;DHT22;3967;48.702;9.326;2023-02-28T06:58:37;-0.50;85.90
7844;DHT22;3967;48.702;9.326;2023-02-28T07:01:06;-0.40;86.40
7844;DHT22;3967;48.702;9.326;2023-02-28T07:03:34;-0.50;86.30
7844;DHT22;3967;48.702;9.326;2023-02-28T07:06:02;-0.60;86.10
7844;DHT22;3967;48.702;9.326;2023-02-28T07:08:29;-0.70;86.70
7844;DHT22;3967;48.702;9.326;2023-02-28T07:10:56;-0.70;87.10
7844;DHT22;3967;48.702;9.326;2023-02-28T07:13:23;-0.60;87.10
7844;DHT22;3967;48.702;9.326;2023-02-28T07:16:04;-0.40;86.90
7844;DHT22;3967;48.702;9.326;2023-02-28T07:18:31;-0.40;86.50
7844;DHT22;3967;48.702;9.326;2023-02-28T07:20:58;-0.40;86.00
7844;DHT22;3967;48.702;9.326;2023-02-28T07:23:25;-0.50;86.20
7844;DHT22;3967;48.702;9.326;2023-02-28T07:25:51;-0.50;86.40
7844;DHT22;3967;48.702;9.326;2023-02-28T07:28:18;-0.50;86.60
7844;DHT22;3967;48.702;9.326;2023-02-28T07:30:45;-0.40;86.00
7844;DHT22;3967;48.702;9.326;2023-02-28T07:33:11;-0.50;86.20
7844;DHT22;3967;48.702;9.326;2023-02-28T07:35:38;-0.50;86.50
7844;DHT22;3967;48.702;9.326;2023-02-28T07:38:05;-0.60;86.10
7844;DHT22;3967;48.702;9.326;2023-02-28T07:40:34;-0.50;86.00
7844;DHT22;3967;48.702;9.326;2023-02-28T07:43:02;-0.30;85.90
7844;DHT22;3967;48.702;9.326;2023-02-28T07:45:29;-0.30;85.60
7844;DHT22;3967;48.702;9.326;2023-02-28T07:47:58;-0.20;85.30
7844;DHT22;3967;48.702;9.326;2023-02-28T07:50:24;-0.20;84.80
7844;DHT22;3967;48.702;9.326;2023-02-28T07:52:52;-0.20;84.60
7844;DHT22;3967;48.702;9.326;2023-02-28T07:55:19;-0.20;84.40
7844;DHT22;3967;48.702;9.326;2023-02-28T07:57:46;-0.20;84.00
7844;DHT22;3967;48.702;9.326;2023-02-28T08:00:13;-0.20;84.40
7844;DHT22;3967;48.702;9.326;2023-02-28T08:02:40;-0.20;84.30
7844;DHT22;3967;48.702;9.326;2023-02-28T08:05:07;-0.20;84.20
7844;DHT22;3967;48.702;9.326;2023-02-28T08:07:34;-0.30;84.20
7844;DHT22;3967;48.702;9.326;2023-02-28T08:10:01;-0.40;84.00
7844;DHT22;3967;48.702;9.326;2023-02-28T08:12:27;-0.20;84.30
7844;DHT22;3967;48.702;9.326;2023-02-28T08:14:54;-0.20;84.00
7844;DHT22;3967;48.702;9.326;2023-02-28T08:17:21;-0.10;83.70
7844;DHT22;3967;48.702;9.326;2023-02-28T08:19:48;-0.20;83.70
7844;DHT22;3967;48.702;9.326;2023-02-28T08:22:14;-0.20;83.40
7844;DHT22;3967;48.702;9.326;2023-02-28T08:24:41;-0.20;83.50
7844;DHT22;3967;48.702;9.326;2023-02-28T08:27:09;-0.10;83.20
7844;DHT22;3967;48.702;9.326;2023-02-28T08:29:39;-0.10;83.70
7844;DHT22;3967;48.702;9.326;2023-02-28T08:32:06;-0.10;83.30
7844;DHT22;3967;48.702;9.326;2023-02-28T08:34:45;0.00;82.80
7844;DHT22;3967;48.702;9.326;2023-02-28T08:37:13;0.10;82.50
7844;DHT22;3967;48.702;9.326;2023-02-28T08:39:40;0.00;82.20
7844;DHT22;3967;48.702;9.326;2023-02-28T08:42:07;-0.20;82.40
7844;DHT22;3967;48.702;9.326;2023-02-28T08:44:34;0.00;82.70
7844;DHT22;3967;48.702;9.326;2023-02-28T08:47:00;0.10;82.50
7844;DHT22;3967;48.702;9.326;2023-02-28T08:49:27;0.10;81.70
7844;DHT22;3967;48.702;9.326;2023-02-28T08:51:55;0.30;81.60
7844;DHT22;3967;48.702;9.326;2023-02-28T08:54:24;0.20;81.10
7844;DHT22;3967;48.702;9.326;2023-02-28T08:56:51;0.30;81.30
7844;DHT22;3967;48.702;9.326;2023-02-28T08:59:17;0.20;80.80
7844;DHT22;3967;48.702;9.326;2023-02-28T09:01:44;0.00;80.80
7844;DHT22;3967;48.702;9.326;2023-02-28T09:04:11;0.10;80.80
7844;DHT22;3967;48.702;9.326;2023-02-28T09:06:42;0.10;81.10
7844;DHT22;3967;48.702;9.326;2023-02-28T09:09:10;0.10;80.70
7844;DHT22;3967;48.702;9.326;2023-02-28T09:11:37;0.30;80.60
7844;DHT22;3967;48.702;9.326;2023-02-28T09:14:04;0.30;80.50
7844;DHT22;3967;48.702;9.326;2023-02-28T09:16:32;0.30;79.90
7844;DHT22;3967;48.702;9.326;2023-02-28T09:19:00;0.30;80.80
7844;DHT22;3967;48.702;9.326;2023-02-28T09:21:27;0.30;79.90
7844;DHT22;3967;48.702;9.326;2023-02-28T09:23:54;0.40;79.70
7844;DHT22;3967;48.702;9.326;2023-02-28T09:26:26;0.30;79.70
7844;DHT22;3967;48.702;9.326;2023-02-28T09:29:04;0.40;80.00
7844;DHT22;3967;48.702;9.326;2023-02-28T09:31:31;0.40;79.80
7844;DHT22;3967;48.702;9.326;2023-02-28T09:33:58;0.40;79.70
7844;DHT22;3967;48.702;9.326;2023-02-28T09:36:26;0.70;80.20
7844;DHT22;3967;48.702;9.326;2023-02-28T09:39:10;0.60;79.60
7844;DHT22;3967;48.702;9.326;2023-02-28T09:41:39;0.60;79.50
7844;DHT22;3967;48.702;9.326;2023-02-28T09:46:51;0.70;79.40
7844;DHT22;3967;48.702;9.326;2023-02-28T09:49:23;0.90;79.00
7844;DHT22;3967;48.702;9.326;2023-02-28T09:51:56;0.90;78.30
7844;DHT22;3967;48.702;9.326;2023-02-28T09:54:28;0.90;78.00
7844;DHT22;3967;48.702;9.326;2023-02-28T09:57:00;1.00;77.90
7844;DHT22;3967;48.702;9.326;2023-02-28T10:02:13;1.10;77.10
7844;DHT22;3967;48.702;9.326;2023-02-28T10:04:50;1.20;77.00
7844;DHT22;3967;48.702;9.326;2023-02-28T10:07:33;1.40;77.00
7844;DHT22;3967;48.702;9.326;2023-02-28T10:10:06;1.20;76.10
7844;DHT22;3967;48.702;9.326;2023-02-28T10:12:41;0.90;76.50
7844;DHT22;3967;48.702;9.326;2023-02-28T10:15:14;1.10;76.90
7844;DHT22;3967;48.702;9.326;2023-02-28T10:17:44;1.00;76.40
7844;DHT22;3967;48.702;9.326;2023-02-28T10:20:22;1.20;76.50
7844;DHT22;3967;48.702;9.326;2023-02-28T10:25:36;1.30;75.80
7844;DHT22;3967;48.702;9.326;2023-02-28T10:28:15;1.10;76.00
7844;DHT22;3967;48.702;9.326;2023-02-28T10:30:46;1.20;77.10
7844;DHT22;3967;48.702;9.326;2023-02-28T10:33:23;1.30;76.30
7844;DHT22;3967;48.702;9.326;2023-02-28T10:35:51;1.50;76.00
7844;DHT22;3967;48.702;9.326;2023-02-28T10:38:22;1.40;75.50
7844;DHT22;3967;48.702;9.326;2023-02-28T10:40:50;1.50;75.90
7844;DHT22;3967;48.702;9.326;2023-02-28T10:43:18;1.70;75.90
7844;DHT22;3967;48.702;9.326;2023-02-28T10:48:44;1.40;75.00
7844;DHT22;3967;48.702;9.326;2023-02-28T10:51:16;1.40;75.10
7844;DHT22;3967;48.702;9.326;2023-02-28T10:53:48;1.40;75.10
7844;DHT22;3967;48.702;9.326;2023-02-28T10:56:26;1.50;75.40
7844;DHT22;3967;48.702;9.326;2023-02-28T11:03:59;1.60;74.90
7844;DHT22;3967;48.702;9.326;2023-02-28T11:06:33;1.70;74.60
7844;DHT22;3967;48.702;9.326;2023-02-28T11:09:14;1.80;75.10
7844;DHT22;3967;48.702;9.326;2023-02-28T11:11:45;1.80;74.70
7844;DHT22;3967;48.702;9.326;2023-02-28T11:14:23;1.70;74.30
7844;DHT22;3967;48.702;9.326;2023-02-28T11:16:51;1.70;74.40
7844;DHT22;3967;48.702;9.326;2023-02-28T11:19:22;1.90;74.40
7844;DHT22;3967;48.702;9.326;2023-02-28T11:21:56;2.00;74.80
7844;DHT22;3967;48.702;9.326;2023-02-28T11:26:57;2.10;74.30
7844;DHT22;3967;48.702;9.326;2023-02-28T11:29:28;2.10;74.20
7844;DHT22;3967;48.702;9.326;2023-02-28T11:34:37;2.60;74.60
7844;DHT22;3967;48.702;9.326;2023-02-28T11:37:05;2.60;73.60
7844;DHT22;3967;48.702;9.326;2023-02-28T11:39:36;2.70;74.00
7844;DHT22;3967;48.702;9.326;2023-02-28T11:45:15;2.70;72.50
7844;DHT22;3967;48.702;9.326;2023-02-28T11:56:49;3.00;73.00
7844;DHT22;3967;48.702;9.326;2023-02-28T12:05:19;3.30;71.70
7844;DHT22;3967;48.702;9.326;2023-02-28T12:08:27;3.40;71.20
7844;DHT22;3967;48.702;9.326;2023-02-28T12:19:19;3.90;71.00
7844;DHT22;3967;48.702;9.326;2023-02-28T12:24:44;3.70;69.30
7844;DHT22;3967;48.702;9.326;2023-02-28T12:27:17;3.60;69.90
7844;DHT22;3967;48.702;9.326;2023-02-28T12:32:38;3.60;70.30
7844;DHT22;3967;48.702;9.326;2023-02-28T12:37:43;4.00;69.60
7844;DHT22;3967;48.702;9.326;2023-02-28T12:40:20;4.00;69.00
7844;DHT22;3967;48.702;9.326;2023-02-28T12:43:07;4.00;69.00
7844;DHT22;3967;48.702;9.326;2023-02-28T12:48:08;4.00;68.00
7844;DHT22;3967;48.702;9.326;2023-02-28T12:50:37;4.10;68.00
7844;DHT22;3967;48.702;9.326;2023-02-28T12:53:17;4.10;68.10
7844;DHT22;3967;48.702;9.326;2023-02-28T12:58:39;4.00;68.30
7844;DHT22;3967;48.702;9.326;2023-02-28T13:03:52;4.40;68.20
7844;DHT22;3967;48.702;9.326;2023-02-28T13:09:19;4.60;68.00
7844;DHT22;3967;48.702;9.326;2023-02-28T13:11:48;4.50;68.10
7844;DHT22;3967;48.702;9.326;2023-02-28T13:19:44;4.50;68.60
7844;DHT22;3967;48.702;9.326;2023-02-28T13:22:37;4.60;67.80
7844;DHT22;3967;48.702;9.326;2023-02-28T13:28:02;4.70;66.80
7844;DHT22;3967;48.702;9.326;2023-02-28T13:33:35;4.90;67.20
7844;DHT22;3967;48.702;9.326;2023-02-28T13:38:49;5.00;67.30
7844;DHT22;3967;48.702;9.326;2023-02-28T13:51:52;4.90;65.70
7844;DHT22;3967;48.702;9.326;2023-02-28T13:57:51;5.00;65.20
7844;DHT22;3967;48.702;9.326;2023-02-28T14:06:16;5.00;65.50
7844;DHT22;3967;48.702;9.326;2023-02-28T14:11:36;5.30;65.40
7844;DHT22;3967;48.702;9.326;2023-02-28T14:14:05;5.20;65.40
7844;DHT22;3967;48.702;9.326;2023-02-28T14:16:44;5.30;65.10
7844;DHT22;3967;48.702;9.326;2023-02-28T14:21:47;5.30;63.70
7844;DHT22;3967;48.702;9.326;2023-02-28T14:32:35;5.30;64.10
7844;DHT22;3967;48.702;9.326;2023-02-28T14:38:21;5.50;63.90
7844;DHT22;3967;48.702;9.326;2023-02-28T14:40:53;5.30;63.50
7844;DHT22;3967;48.702;9.326;2023-02-28T14:43:26;5.30;64.30
7844;DHT22;3967;48.702;9.326;2023-02-28T14:45:56;5.30;65.20
7844;DHT22;3967;48.702;9.326;2023-02-28T14:48:24;5.40;64.30
7844;DHT22;3967;48.702;9.326;2023-02-28T14:51:00;5.40;64.30
7844;DHT22;3967;48.702;9.326;2023-02-28T14:53:30;5.40;64.50
7844;DHT22;3967;48.702;9.326;2023-02-28T14:56:01;5.40;63.90
7844;DHT22;3967;48.702;9.326;2023-02-28T14:58:33;5.50;63.90
7844;DHT22;3967;48.702;9.326;2023-02-28T15:01:03;5.40;63.60
7844;DHT22;3967;48.702;9.326;2023-02-28T15:03:31;5.40;64.00
7844;DHT22;3967;48.702;9.326;2023-02-28T15:06:01;5.40;63.70
7844;DHT22;3967;48.702;9.326;2023-02-28T15:08:29;5.50;63.50
7844;DHT22;3967;48.702;9.326;2023-02-28T15:10:58;5.40;63.60
7844;DHT22;3967;48.702;9.326;2023-02-28T15:16:03;5.20;64.10
7844;DHT22;3967;48.702;9.326;2023-02-28T15:21:12;5.00;64.60
7844;DHT22;3967;48.702;9.326;2023-02-28T15:23:42;4.90;64.50
7844;DHT22;3967;48.702;9.326;2023-02-28T15:26:21;5.10;64.90
7844;DHT22;3967;48.702;9.326;2023-02-28T15:28:55;5.00;64.50
7844;DHT22;3967;48.702;9.326;2023-02-28T15:32:03;5.10;64.90
7844;DHT22;3967;48.702;9.326;2023-02-28T15:34:41;5.00;64.60
7844;DHT22;3967;48.702;9.326;2023-02-28T15:37:45;5.10;64.40
7844;DHT22;3967;48.702;9.326;2023-02-28T15:43:25;5.30;64.40
7844;DHT22;3967;48.702;9.326;2023-02-28T15:46:05;5.30;64.10
7844;DHT22;3967;48.702;9.326;2023-02-28T15:48:43;5.10;64.10
7844;DHT22;3967;48.702;9.326;2023-02-28T15:51:29;5.00;64.30
7844;DHT22;3967;48.702;9.326;2023-02-28T15:54:01;5.00;64.80
7844;DHT22;3967;48.702;9.326;2023-02-28T15:56:30;5.10;64.60
7844;DHT22;3967;48.702;9.326;2023-02-28T15:59:03;5.00;64.50
7844;DHT22;3967;48.702;9.326;2023-02-28T16:01:34;4.90;65.30
7844;DHT22;3967;48.702;9.326;2023-02-28T16:04:21;4.80;64.60
7844;DHT22;3967;48.702;9.326;2023-02-28T16:09:26;4.90;64.80
7844;DHT22;3967;48.702;9.326;2023-02-28T16:11:56;5.00;64.80
7844;DHT22;3967;48.702;9.326;2023-02-28T16:14:26;5.10;64.90
7844;DHT22;3967;48.702;9.326;2023-02-28T16:16:56;5.00;64.50
7844;DHT22;3967;48.702;9.326;2023-02-28T16:19:24;4.90;64.50
7844;DHT22;3967;48.702;9.326;2023-02-28T16:21:50;4.80;65.00
7844;DHT22;3967;48.702;9.326;2023-02-28T16:24:17;4.70;65.30
7844;DHT22;3967;48.702;9.326;2023-02-28T16:26:48;4.80;65.70
7844;DHT22;3967;48.702;9.326;2023-02-28T16:29:31;4.70;65.70
7844;DHT22;3967;48.702;9.326;2023-02-28T16:31:59;4.70;65.90
7844;DHT22;3967;48.702;9.326;2023-02-28T16:34:27;4.90;65.70
7844;DHT22;3967;48.702;9.326;2023-02-28T16:36:54;4.80;65.30
7844;DHT22;3967;48.702;9.326;2023-02-28T16:39:20;4.80;65.30
7844;DHT22;3967;48.702;9.326;2023-02-28T16:41:48;4.80;65.30
7844;DHT22;3967;48.702;9.326;2023-02-28T16:44:36;4.90;65.50
7844;DHT22;3967;48.702;9.326;2023-02-28T16:47:04;4.90;65.60
7844;DHT22;3967;48.702;9.326;2023-02-28T16:49:31;4.60;65.60
7844;DHT22;3967;48.702;9.326;2023-02-28T16:51:58;4.70;65.80
7844;DHT22;3967;48.702;9.326;2023-02-28T16:54:25;4.70;65.90
7844;DHT22;3967;48.702;9.326;2023-02-28T16:56:51;4.70;66.50
7844;DHT22;3967;48.702;9.326;2023-02-28T16:59:23;4.60;66.20
7844;DHT22;3967;48.702;9.326;2023-02-28T17:01:51;4.30;66.40
7844;DHT22;3967;48.702;9.326;2023-02-28T17:04:18;4.30;66.60
7844;DHT22;3967;48.702;9.326;2023-02-28T17:06:45;4.30;66.50
7844;DHT22;3967;48.702;9.326;2023-02-28T17:09:20;4.50;66.40
7844;DHT22;3967;48.702;9.326;2023-02-28T17:11:56;4.40;66.00
7844;DHT22;3967;48.702;9.326;2023-02-28T17:14:23;4.40;66.30
7844;DHT22;3967;48.702;9.326;2023-02-28T17:16:50;4.40;66.40
7844;DHT22;3967;48.702;9.326;2023-02-28T17:19:18;4.30;66.40
7844;DHT22;3967;48.702;9.326;2023-02-28T17:21:45;4.20;66.60
7844;DHT22;3967;48.702;9.326;2023-02-28T17:24:12;4.10;66.90
7844;DHT22;3967;48.702;9.326;2023-02-28T17:26:44;4.00;67.30
7844;DHT22;3967;48.702;9.326;2023-02-28T17:29:20;4.10;67.70
7844;DHT22;3967;48.702;9.326;2023-02-28T17:31:47;4.00;67.70
7844;DHT22;3967;48.702;9.326;2023-02-28T17:34:14;4.00;67.50
7844;DHT22;3967;48.702;9.326;2023-02-28T17:36:48;4.10;67.40
7844;DHT22;3967;48.702;9.326;2023-02-28T17:39:17;4.00;67.50
7844;DHT22;3967;48.702;9.326;2023-02-28T17:41:52;4.00;67.50
7844;DHT22;3967;48.702;9.326;2023-02-28T17:44:19;4.00;67.60
7844;DHT22;3967;48.702;9.326;2023-02-28T17:46:47;3.80;67.70
7844;DHT22;3967;48.702;9.326;2023-02-28T17:49:16;3.80;67.90
7844;DHT22;3967;48.702;9.326;2023-02-28T17:51:44;3.80;67.90
7844;DHT22;3967;48.702;9.326;2023-02-28T17:54:11;4.10;68.00
7844;DHT22;3967;48.702;9.326;2023-02-28T17:56:37;3.90;67.30
7844;DHT22;3967;48.702;9.326;2023-02-28T17:59:04;3.80;67.80
7844;DHT22;3967;48.702;9.326;2023-02-28T18:01:31;3.80;67.80
7844;DHT22;3967;48.702;9.326;2023-02-28T18:03:58;3.70;67.90
7844;DHT22;3967;48.702;9.326;2023-02-28T18:06:25;3.70;67.90
7844;DHT22;3967;48.702;9.326;2023-02-28T18:08:54;3.80;68.00
7844;DHT22;3967;48.702;9.326;2023-02-28T18:11:22;3.70;67.70
7844;DHT22;3967;48.702;9.326;2023-02-28T18:13:51;3.70;68.00
7844;DHT22;3967;48.702;9.326;2023-02-28T18:16:19;3.60;68.20
7844;DHT22;3967;48.702;9.326;2023-02-28T18:18:48;3.60;68.70
7844;DHT22;3967;48.702;9.326;2023-02-28T18:21:16;3.70;68.20
7844;DHT22;3967;48.702;9.326;2023-02-28T18:23:43;3.60;68.10
7844;DHT22;3967;48.702;9.326;2023-02-28T18:26:18;3.80;68.00
7844;DHT22;3967;48.702;9.326;2023-02-28T18:28:46;3.90;67.60
7844;DHT22;3967;48.702;9.326;2023-02-28T18:31:15;4.00;67.50
7844;DHT22;3967;48.702;9.326;2023-02-28T18:33:43;4.00;67.50
7844;DHT22;3967;48.702;9.326;2023-02-28T18:36:10;4.00;67.50
7844;DHT22;3967;48.702;9.326;2023-02-28T18:38:37;4.00;67.40
7844;DHT22;3967;48.702;9.326;2023-02-28T18:41:05;4.00;67.40
7844;DHT22;3967;48.702;9.326;2023-02-28T18:43:34;4.10;67.10
7844;DHT22;3967;48.702;9.326;2023-02-28T18:46:09;3.90;66.80
7844;DHT22;3967;48.702;9.326;2023-02-28T18:48:36;3.70;67.30
7844;DHT22;3967;48.702;9.326;2023-02-28T18:51:11;3.70;67.90
7844;DHT22;3967;48.702;9.326;2023-02-28T18:53:40;3.70;67.70
7844;DHT22;3967;48.702;9.326;2023-02-28T18:56:09;3.60;68.30
7844;DHT22;3967;48.702;9.326;2023-02-28T18:58:36;3.50;68.50
7844;DHT22;3967;48.702;9.326;2023-02-28T19:01:07;3.40;68.80
7844;DHT22;3967;48.702;9.326;2023-02-28T19:03:39;3.70;69.00
7844;DHT22;3967;48.702;9.326;2023-02-28T19:06:06;3.50;68.80
7844;DHT22;3967;48.702;9.326;2023-02-28T19:08:32;3.70;69.10
7844;DHT22;3967;48.702;9.326;2023-02-28T19:11:11;3.50;69.10
7844;DHT22;3967;48.702;9.326;2023-02-28T19:13:39;3.60;69.40